Airfield :







YOU CAN JOIN US ON...

 
LOGIN :

Register | Disclaimer

   EN    FR    IT 

 









Legend :    VFR   Marginal VFR   IFR   Intensive IFR   Very Intensive IFR
Visi :
Ceiling :
>= 8 km
>= 3000ft
5 to 8 km
1000 to 3000 ft
1500m to 5 km
500 to 1000 ft
800 to 1500m
200 to 500 ft
< 800m
< 200 ft
Symbols :   Thunderstorms  Fog  Heavy snow  Heavy precipitations  Wind > 20 kt







- Airport Elevation : 203 ft
- IATA code : YQY


CYQY - Sydney

CURRENT METAR :
  • 250540Z 04008KT 1 3/4SM -SN OVC015 M03/M05 A2988 RMK NS8 SLP121

EXPIRED METARs :
  • 250522Z 02009KT 3SM -SG OVC020 M02/M06 A2987 RMK NS8 SLP121
  • 250500Z 03009KT 15SM -SN OVC033 M01/M07 A2987 RMK NS8 FLRYS SLP119
  • 250444Z 03007KT 15SM -SN OVC042 M01/M04 A2987 RMK NS8 FLRYS SLP119
  • 250400Z 03008KT 15SM BKN069 M01/M04 A2985 RMK AS6 SLP114
  • 250330Z 02010KT 15SM SCT088 BKN120 M00/M04 A2985 RMK AS3AS3 WSHFT 0316 SLP111
  • 250300Z 32005KT 15SM FEW092 SCT100 BKN240 00/M05 A2984 RMK AC2AC2CS2 SLP109

TAF AMD TAF CYQY
Valid from the 25 at 06:00 until the 25 at 18:00 UTC


250604Z 2506/2518 06005KT 11/2SM -SHSN OVC015
TEMPO 2506/2509 6SM -SHSN OVC025
FM250900 07008KT 3SM -SHSN OVC020
TEMPO 2509/2515 P6SM -SHSN OVC030
FM251500 18008KT P6SM OVC030
BECMG 2516/2518 28012G22KT RMK NXT FCST BY 251200Z
CZQM FIR / North America



MET'MAP, your aeronautical weather chart ! - Copyright ORBIFLY December 2007 - Disclaimer

ORBIFLY MET'MAP TEAM :

Programming & Development : Alexandra Zaïnal
Concept & Development : Baudouin d'Aumeries
Co-Development & Prog : Marc-Olivier Méhu
Technical & hardware support : Manuel Goepfert

Contact : metmap@orbifly.com




SOURCES & CREDITS :

   NOAA